Time,TemperatureF,DewpointF,PressureIn,WindDirection,WindDirectionDegrees,WindSpeedMPH,WindSpeedGustMPH,Humidity,HourlyPrecipIn,Conditions,Clouds,dailyrainin,SoftwareType,DateUTC
2013-03-04 00:01:00,25.0,17.0,29.85,NW,317,5.0,-999.0,70,-99.99,,,-99.99,,2013-03-04 05:01:00,
2013-03-04 00:11:00,25.0,17.0,29.85,NW,317,5.0,-999.0,70,-99.99,,,-99.99,,2013-03-04 05:11:00,
2013-03-04 00:22:00,25.0,16.0,29.85,NW,307,6.0,-999.0,68,-99.99,,,-99.99,,2013-03-04 05:22:00,
2013-03-04 00:31:00,25.0,15.0,29.85,WNW,288,6.0,-999.0,65,-99.99,,,-99.99,,2013-03-04 05:31:00,
2013-03-04 00:42:00,25.0,19.0,29.86,WNW,298,7.0,-999.0,76,-99.99,,,-99.99,,2013-03-04 05:42:00,
2013-03-04 00:52:00,25.0,19.0,29.86,WNW,298,7.0,-999.0,76,-99.99,,,-99.99,,2013-03-04 05:52:00,
2013-03-04 01:01:00,23.0,17.0,29.86,NNW,343,9.0,-999.0,76,-99.99,,,-99.99,,2013-03-04 06:01:00,
2013-03-04 01:11:00,23.0,17.0,29.86,NNW,343,9.0,-999.0,76,-99.99,,,-99.99,,2013-03-04 06:11:00,
2013-03-04 01:21:00,22.0,16.0,29.86,North,360,6.0,-999.0,79,-99.99,,,-99.99,,2013-03-04 06:21:00,
2013-03-04 01:31:00,22.0,16.0,29.85,NNE,17,6.0,-999.0,78,-99.99,,,-99.99,,2013-03-04 06:31:00,
2013-03-04 01:42:00,22.0,16.0,29.85,NNE,17,6.0,-999.0,78,-99.99,,,-99.99,,2013-03-04 06:42:00,
2013-03-04 01:51:00,22.0,17.0,29.85,NNW,342,5.0,-999.0,80,-99.99,,,-99.99,,2013-03-04 06:51:00,
2013-03-04 02:01:00,21.0,16.0,29.86,NNE,22,5.0,-999.0,81,-99.99,,,-99.99,,2013-03-04 07:01:00,
2013-03-04 02:11:00,21.0,16.0,29.86,NNE,22,5.0,-999.0,81,-99.99,,,-99.99,,2013-03-04 07:11:00,
2013-03-04 02:21:00,21.0,16.0,29.86,NNE,22,7.0,-999.0,81,-99.99,,,-99.99,,2013-03-04 07:21:00,
2013-03-04 02:31:00,21.0,16.0,29.86,NNW,337,5.0,-999.0,82,-99.99,,,-99.99,,2013-03-04 07:31:00,
2013-03-04 02:41:00,21.0,16.0,29.86,NNW,337,5.0,-999.0,82,-99.99,,,-99.99,,2013-03-04 07:41:00,
2013-03-04 02:52:00,20.0,16.0,29.87,NNW,341,3.0,-999.0,84,-99.99,,,-99.99,,2013-03-04 07:52:00,
2013-03-04 03:01:00,20.0,16.0,29.87,NNW,327,2.0,-999.0,85,-99.99,,,-99.99,,2013-03-04 08:01:00,
2013-03-04 03:11:00,20.0,16.0,29.87,NNW,332,2.0,-999.0,86,-99.99,,,-99.99,,2013-03-04 08:11:00,
2013-03-04 03:21:00,20.0,16.0,29.87,NNW,332,2.0,-999.0,86,-99.99,,,-99.99,,2013-03-04 08:21:00,
2013-03-04 03:31:00,20.0,16.0,29.86,NNW,338,4.0,-999.0,86,-99.99,,,-99.99,,2013-03-04 08:31:00,
2013-03-04 03:41:00,20.0,16.0,29.86,NNW,338,4.0,-999.0,86,-99.99,,,-99.99,,2013-03-04 08:41:00,
2013-03-04 03:52:00,20.0,16.0,29.86,NNW,338,4.0,-999.0,84,-99.99,,,-99.99,,2013-03-04 08:52:00,
2013-03-04 04:01:00,20.0,16.0,29.87,NNW,329,2.0,-999.0,83,-99.99,,,-99.99,,2013-03-04 09:01:00,
2013-03-04 04:11:00,20.0,16.0,29.87,NNW,329,2.0,-999.0,83,-99.99,,,-99.99,,2013-03-04 09:11:00,
2013-03-04 04:21:00,20.0,16.0,29.87,NNW,329,0.0,-999.0,84,-99.99,,,-99.99,,2013-03-04 09:21:00,
2013-03-04 04:31:00,19.0,15.0,29.88,NNW,329,0.0,-999.0,84,-99.99,,,-99.99,,2013-03-04 09:31:00,
2013-03-04 04:41:00,19.0,15.0,29.88,NNW,329,0.0,-999.0,84,-99.99,,,-99.99,,2013-03-04 09:41:00,
2013-03-04 04:52:00,19.0,15.0,29.87,WNW,286,2.0,-999.0,85,-99.99,,,-99.99,,2013-03-04 09:52:00,
2013-03-04 05:01:00,19.0,15.0,29.88,WNW,286,0.0,-999.0,85,-99.99,,,-99.99,,2013-03-04 10:01:00,
2013-03-04 05:11:00,19.0,15.0,29.88,WNW,286,0.0,-999.0,85,-99.99,,,-99.99,,2013-03-04 10:11:00,
2013-03-04 05:21:00,18.0,14.0,29.88,WNW,286,0.0,-999.0,85,-99.99,,,-99.99,,2013-03-04 10:21:00,
2013-03-04 05:31:00,18.0,15.0,29.88,WNW,286,0.0,-999.0,86,-99.99,,,-99.99,,2013-03-04 10:31:00,
2013-03-04 05:41:00,18.0,15.0,29.89,WNW,286,0.0,-999.0,86,-99.99,,,-99.99,,2013-03-04 10:41:00,
2013-03-04 05:52:00,18.0,15.0,29.89,WNW,286,0.0,-999.0,86,-99.99,,,-99.99,,2013-03-04 10:52:00,
2013-03-04 06:01:00,18.0,15.0,29.87,WNW,286,0.0,-999.0,87,-99.99,,,-99.99,,2013-03-04 11:01:00,
2013-03-04 06:11:00,18.0,15.0,29.87,WNW,286,0.0,-999.0,87,-99.99,,,-99.99,,2013-03-04 11:11:00,
2013-03-04 06:21:00,17.0,14.0,29.88,WNW,286,0.0,-999.0,88,-99.99,,,-99.99,,2013-03-04 11:21:00,
2013-03-04 06:31:00,17.0,14.0,29.88,WNW,286,0.0,-999.0,88,-99.99,,,-99.99,,2013-03-04 11:31:00,
2013-03-04 06:41:00,17.0,14.0,29.88,WNW,286,0.0,-999.0,88,-99.99,,,-99.99,,2013-03-04 11:41:00,
2013-03-04 06:52:00,18.0,15.0,29.89,WNW,286,0.0,-999.0,88,-99.99,,,-99.99,,2013-03-04 11:52:00,
2013-03-04 07:01:00,17.0,14.0,29.89,WNW,286,0.0,-999.0,87,-99.99,,,-99.99,,2013-03-04 12:01:00,
2013-03-04 07:11:00,17.0,14.0,29.89,WNW,286,0.0,-999.0,87,-99.99,,,-99.99,,2013-03-04 12:11:00,
2013-03-04 07:22:00,17.0,15.0,29.90,WNW,286,0.0,-999.0,90,-99.99,,,-99.99,,2013-03-04 12:22:00,
2013-03-04 07:32:00,17.0,14.0,29.91,NE,40,1.0,-999.0,89,-99.99,,,-99.99,,2013-03-04 12:32:00,
2013-03-04 07:42:00,17.0,14.0,29.91,NE,40,1.0,-999.0,89,-99.99,,,-99.99,,2013-03-04 12:42:00,
2013-03-04 07:52:00,17.0,14.0,29.92,NNE,17,1.0,-999.0,89,-99.99,,,-99.99,,2013-03-04 12:52:00,
2013-03-04 08:01:00,16.0,13.0,29.93,NNE,27,0.0,-999.0,87,-99.99,,,-99.99,,2013-03-04 13:01:00,
2013-03-04 08:11:00,16.0,13.0,29.93,NNE,27,0.0,-999.0,87,-99.99,,,-99.99,,2013-03-04 13:11:00,
2013-03-04 08:21:00,13.0,9.0,29.95,NNE,12,2.0,-999.0,83,-99.99,,,-99.99,,2013-03-04 13:21:00,
2013-03-04 08:31:00,14.0,9.0,29.96,NNW,336,4.0,-999.0,80,-99.99,,,-99.99,,2013-03-04 13:31:00,
2013-03-04 08:41:00,14.0,9.0,29.96,NNW,336,4.0,-999.0,80,-99.99,,,-99.99,,2013-03-04 13:41:00,
2013-03-04 08:52:00,14.0,8.0,29.94,North,360,3.0,-999.0,77,-99.99,,,-99.99,,2013-03-04 13:52:00,
2013-03-04 09:01:00,11.0,5.0,29.96,North,5,4.0,-999.0,77,-99.99,,,-99.99,,2013-03-04 14:01:00,
2013-03-04 09:11:00,11.0,5.0,29.96,North,5,4.0,-999.0,77,-99.99,,,-99.99,,2013-03-04 14:11:00,
2013-03-04 09:21:00,11.0,5.0,29.97,NNW,335,4.0,-999.0,77,-99.99,,,-99.99,,2013-03-04 14:21:00,
2013-03-04 09:31:00,12.0,6.0,29.98,NNW,331,5.0,-999.0,76,-99.99,,,-99.99,,2013-03-04 14:31:00,
2013-03-04 09:41:00,12.0,6.0,29.98,NNW,331,5.0,-999.0,76,-99.99,,,-99.99,,2013-03-04 14:41:00,
2013-03-04 09:52:00,13.0,6.0,29.99,NNW,337,5.0,-999.0,74,-99.99,,,-99.99,,2013-03-04 14:52:00,
2013-03-04 10:01:00,14.0,7.0,30.00,NW,325,5.0,-999.0,72,-99.99,,,-99.99,,2013-03-04 15:01:00,
2013-03-04 10:11:00,14.0,7.0,30.00,NW,325,5.0,-999.0,72,-99.99,,,-99.99,,2013-03-04 15:11:00,
2013-03-04 10:21:00,14.0,6.0,30.00,NNW,338,5.0,-999.0,70,-99.99,,,-99.99,,2013-03-04 15:21:00,
2013-03-04 10:31:00,15.0,6.0,29.99,NNW,331,3.0,-999.0,67,-99.99,,,-99.99,,2013-03-04 15:31:00,
2013-03-04 10:41:00,15.0,6.0,29.99,NNW,331,3.0,-999.0,67,-99.99,,,-99.99,,2013-03-04 15:41:00,
2013-03-04 10:51:00,17.0,7.0,30.00,North,355,1.0,-999.0,64,-99.99,,,-99.99,,2013-03-04 15:51:00,
2013-03-04 11:02:00,16.0,6.0,30.01,NE,50,3.0,-999.0,63,-99.99,,,-99.99,,2013-03-04 16:02:00,
2013-03-04 11:11:00,16.0,6.0,30.01,NE,50,3.0,-999.0,63,-99.99,,,-99.99,,2013-03-04 16:11:00,
2013-03-04 11:21:00,17.0,7.0,30.02,NNE,12,3.0,-999.0,63,-99.99,,,-99.99,,2013-03-04 16:21:00,
2013-03-04 11:31:00,18.0,6.0,30.03,NW,313,5.0,-999.0,60,-99.99,,,-99.99,,2013-03-04 16:31:00,
2013-03-04 11:41:00,18.0,6.0,30.03,NW,313,5.0,-999.0,60,-99.99,,,-99.99,,2013-03-04 16:41:00,
2013-03-04 11:52:00,18.0,5.0,30.04,NNE,13,6.0,-999.0,57,-99.99,,,-99.99,,2013-03-04 16:52:00,
2013-03-04 12:01:00,18.0,6.0,30.04,NNE,17,6.0,-999.0,58,-99.99,,,-99.99,,2013-03-04 17:01:00,
2013-03-04 12:11:00,18.0,6.0,30.04,NNE,17,6.0,-999.0,58,-99.99,,,-99.99,,2013-03-04 17:11:00,
2013-03-04 12:21:00,19.0,5.0,30.05,NE,38,7.0,-999.0,54,-99.99,,,-99.99,,2013-03-04 17:21:00,
2013-03-04 12:31:00,19.0,5.0,30.04,NNE,25,7.0,-999.0,54,-99.99,,,-99.99,,2013-03-04 17:31:00,
2013-03-04 12:42:00,19.0,5.0,30.04,NNE,25,7.0,-999.0,54,-99.99,,,-99.99,,2013-03-04 17:42:00,
2013-03-04 12:52:00,20.0,7.0,30.05,NNE,20,6.0,-999.0,57,-99.99,,,-99.99,,2013-03-04 17:52:00,
2013-03-04 13:01:00,20.0,5.0,30.06,North,5,7.0,-999.0,52,-99.99,,,-99.99,,2013-03-04 18:01:00,
2013-03-04 13:11:00,20.0,5.0,30.06,North,5,7.0,-999.0,52,-99.99,,,-99.99,,2013-03-04 18:11:00,
2013-03-04 13:21:00,21.0,4.0,30.06,NW,313,6.0,-999.0,48,-99.99,,,-99.99,,2013-03-04 18:21:00,
2013-03-04 13:31:00,21.0,5.0,30.06,NNE,12,7.0,-999.0,49,-99.99,,,-99.99,,2013-03-04 18:31:00,
2013-03-04 13:41:00,21.0,5.0,30.06,NNE,12,7.0,-999.0,49,-99.99,,,-99.99,,2013-03-04 18:41:00,
2013-03-04 13:52:00,21.0,5.0,30.06,NNE,30,8.0,-999.0,49,-99.99,,,-99.99,,2013-03-04 18:52:00,
2013-03-04 14:01:00,22.0,5.0,30.07,NNE,31,6.0,-999.0,48,-99.99,,,-99.99,,2013-03-04 19:01:00,
2013-03-04 14:11:00,22.0,5.0,30.07,NNE,31,6.0,-999.0,48,-99.99,,,-99.99,,2013-03-04 19:11:00,
2013-03-04 14:21:00,22.0,5.0,30.07,NNE,25,8.0,-999.0,48,-99.99,,,-99.99,,2013-03-04 19:21:00,
2013-03-04 14:31:00,22.0,5.0,30.08,North,9,8.0,-999.0,48,-99.99,,,-99.99,,2013-03-04 19:31:00,
2013-03-04 14:41:00,22.0,5.0,30.08,North,9,8.0,-999.0,48,-99.99,,,-99.99,,2013-03-04 19:41:00,
2013-03-04 14:52:00,23.0,6.0,30.08,NNE,32,8.0,-999.0,48,-99.99,,,-99.99,,2013-03-04 19:52:00,
2013-03-04 15:01:00,23.0,6.0,30.09,NNE,28,6.0,-999.0,48,-99.99,,,-99.99,,2013-03-04 20:01:00,
2013-03-04 15:11:00,24.0,7.0,30.09,NNE,14,6.0,-999.0,47,-99.99,,,-99.99,,2013-03-04 20:11:00,
2013-03-04 15:21:00,24.0,7.0,30.09,NNE,14,6.0,-999.0,47,-99.99,,,-99.99,,2013-03-04 20:21:00,
2013-03-04 15:31:00,24.0,6.0,30.07,NE,34,6.0,-999.0,45,-99.99,,,-99.99,,2013-03-04 20:31:00,
2013-03-04 15:41:00,24.0,6.0,30.07,NE,34,6.0,-999.0,45,-99.99,,,-99.99,,2013-03-04 20:41:00,
2013-03-04 15:52:00,25.0,6.0,30.08,NE,36,5.0,-999.0,44,-99.99,,,-99.99,,2013-03-04 20:52:00,
2013-03-04 16:01:00,26.0,6.0,30.08,ESE,106,3.0,-999.0,42,-99.99,,,-99.99,,2013-03-04 21:01:00,
2013-03-04 16:11:00,26.0,6.0,30.08,ESE,106,3.0,-999.0,42,-99.99,,,-99.99,,2013-03-04 21:11:00,
2013-03-04 16:21:00,26.0,6.0,30.09,East,87,5.0,-999.0,42,-99.99,,,-99.99,,2013-03-04 21:21:00,
2013-03-04 16:31:00,25.0,5.0,30.09,SSE,166,2.0,-999.0,42,-99.99,,,-99.99,,2013-03-04 21:31:00,
2013-03-04 16:41:00,25.0,5.0,30.09,SSE,166,2.0,-999.0,42,-99.99,,,-99.99,,2013-03-04 21:41:00,
2013-03-04 16:52:00,27.0,6.0,30.10,ESE,105,1.0,-999.0,40,-99.99,,,-99.99,,2013-03-04 21:52:00,
2013-03-04 17:01:00,26.0,6.0,30.10,NE,42,4.0,-999.0,41,-99.99,,,-99.99,,2013-03-04 22:01:00,
2013-03-04 17:11:00,26.0,6.0,30.10,NE,42,4.0,-999.0,41,-99.99,,,-99.99,,2013-03-04 22:11:00,
2013-03-04 17:21:00,25.0,6.0,30.11,ENE,77,3.0,-999.0,43,-99.99,,,-99.99,,2013-03-04 22:21:00,
2013-03-04 17:31:00,26.0,7.0,30.12,East,89,3.0,-999.0,43,-99.99,,,-99.99,,2013-03-04 22:31:00,
2013-03-04 17:42:00,26.0,7.0,30.12,East,89,3.0,-999.0,43,-99.99,,,-99.99,,2013-03-04 22:42:00,
2013-03-04 17:52:00,26.0,6.0,30.12,East,83,3.0,-999.0,42,-99.99,,,-99.99,,2013-03-04 22:52:00,
2013-03-04 18:01:00,24.0,6.0,30.12,East,85,2.0,-999.0,45,-99.99,,,-99.99,,2013-03-04 23:01:00,
2013-03-04 18:11:00,24.0,6.0,30.12,East,85,2.0,-999.0,45,-99.99,,,-99.99,,2013-03-04 23:11:00,
2013-03-04 18:21:00,24.0,6.0,30.13,ENE,76,2.0,-999.0,45,-99.99,,,-99.99,,2013-03-04 23:21:00,
2013-03-04 18:31:00,25.0,6.0,30.13,East,86,3.0,-999.0,44,-99.99,,,-99.99,,2013-03-04 23:31:00,
2013-03-04 18:41:00,25.0,6.0,30.13,East,86,3.0,-999.0,44,-99.99,,,-99.99,,2013-03-04 23:41:00,
2013-03-04 18:52:00,25.0,7.0,30.11,ENE,70,3.0,-999.0,45,-99.99,,,-99.99,,2013-03-04 23:52:00,
2013-03-04 19:01:00,25.0,6.0,30.11,ENE,68,1.0,-999.0,43,-99.99,,,-99.99,,2013-03-05 00:01:00,
2013-03-04 19:11:00,25.0,6.0,30.11,ENE,68,1.0,-999.0,43,-99.99,,,-99.99,,2013-03-05 00:11:00,
2013-03-04 19:21:00,25.0,5.0,30.11,ENE,68,0.0,-999.0,41,-99.99,,,-99.99,,2013-03-05 00:21:00,
2013-03-04 19:32:00,25.0,7.0,30.12,ENE,68,0.0,-999.0,45,-99.99,,,-99.99,,2013-03-05 00:32:00,
2013-03-04 19:41:00,25.0,7.0,30.12,ENE,68,0.0,-999.0,45,-99.99,,,-99.99,,2013-03-05 00:41:00,
2013-03-04 19:52:00,24.0,7.0,30.12,ENE,68,0.0,-999.0,47,-99.99,,,-99.99,,2013-03-05 00:52:00,
2013-03-04 20:01:00,22.0,5.0,30.13,ENE,68,0.0,-999.0,48,-99.99,,,-99.99,,2013-03-05 01:01:00,
2013-03-04 20:11:00,22.0,5.0,30.13,ENE,68,0.0,-999.0,48,-99.99,,,-99.99,,2013-03-05 01:11:00,
2013-03-04 20:21:00,21.0,6.0,30.14,ENE,68,0.0,-999.0,51,-99.99,,,-99.99,,2013-03-05 01:21:00,
2013-03-04 20:32:00,19.0,6.0,30.14,ENE,68,0.0,-999.0,56,-99.99,,,-99.99,,2013-03-05 01:32:00,
2013-03-04 20:41:00,19.0,6.0,30.14,ENE,68,0.0,-999.0,56,-99.99,,,-99.99,,2013-03-05 01:41:00,
2013-03-04 20:52:00,20.0,7.0,30.14,WNW,293,3.0,-999.0,56,-99.99,,,-99.99,,2013-03-05 01:52:00,
2013-03-04 21:01:00,19.0,6.0,30.15,WNW,291,2.0,-999.0,57,-99.99,,,-99.99,,2013-03-05 02:01:00,
2013-03-04 21:11:00,19.0,6.0,30.15,WNW,291,2.0,-999.0,57,-99.99,,,-99.99,,2013-03-05 02:11:00,
2013-03-04 21:21:00,18.0,6.0,30.16,NNW,334,2.0,-999.0,58,-99.99,,,-99.99,,2013-03-05 02:21:00,
2013-03-04 21:31:00,17.0,5.0,30.14,NW,319,1.0,-999.0,59,-99.99,,,-99.99,,2013-03-05 02:31:00,
2013-03-04 21:41:00,17.0,5.0,30.14,NW,319,1.0,-999.0,59,-99.99,,,-99.99,,2013-03-05 02:41:00,
2013-03-04 21:52:00,14.0,3.0,30.15,NW,319,0.0,-999.0,61,-99.99,,,-99.99,,2013-03-05 02:52:00,
2013-03-04 22:01:00,12.0,3.0,30.16,NW,319,1.0,-999.0,66,-99.99,,,-99.99,,2013-03-05 03:01:00,
2013-03-04 22:11:00,12.0,3.0,30.16,NW,319,1.0,-999.0,66,-99.99,,,-99.99,,2013-03-05 03:11:00,
2013-03-04 22:21:00,12.0,3.0,30.16,NNE,21,1.0,-999.0,66,-99.99,,,-99.99,,2013-03-05 03:21:00,
2013-03-04 22:31:00,13.0,3.0,30.17,NNE,21,0.0,-999.0,64,-99.99,,,-99.99,,2013-03-05 03:31:00,
2013-03-04 22:41:00,13.0,3.0,30.17,NNE,21,0.0,-999.0,64,-99.99,,,-99.99,,2013-03-05 03:41:00,
2013-03-04 22:52:00,12.0,2.0,30.17,NNE,21,0.0,-999.0,64,-99.99,,,-99.99,,2013-03-05 03:52:00,
2013-03-04 23:01:00,10.0,0.0,30.18,NNE,21,0.0,-999.0,64,-99.99,,,-99.99,,2013-03-05 04:01:00,
2013-03-04 23:11:00,10.0,0.0,30.18,NNE,21,0.0,-999.0,64,-99.99,,,-99.99,,2013-03-05 04:11:00,
2013-03-04 23:21:00,8.0,0.0,30.19,NNE,21,1.0,-999.0,68,-99.99,,,-99.99,,2013-03-05 04:21:00,
2013-03-04 23:31:00,7.0,1.0,30.18,NNE,21,2.0,-999.0,76,-99.99,,,-99.99,,2013-03-05 04:31:00,
2013-03-04 23:41:00,7.0,1.0,30.18,NNE,21,2.0,-999.0,76,-99.99,,,-99.99,,2013-03-05 04:41:00,
2013-03-04 23:52:00,4.0,-1.0,30.18,NNE,21,1.0,-999.0,78,-99.99,,,-99.99,,2013-03-05 04:52:00,